createdAt,value
2023-04-28T00:01:41.576Z,5.35
2023-04-28T00:04:08.456Z,5.93
2023-04-28T00:06:35.403Z,5.93
2023-04-28T00:09:01.987Z,6.05
2023-04-28T00:11:28.504Z,6.40
2023-04-28T00:13:55.158Z,5.82
2023-04-28T00:16:21.821Z,6.18
2023-04-28T00:18:48.398Z,6.68
2023-04-28T00:21:14.958Z,6.13
2023-04-28T00:23:41.576Z,5.75
2023-04-28T00:26:08.186Z,6.30
2023-04-28T00:28:35.245Z,6.00
2023-04-28T00:31:11.386Z,6.10
2023-04-28T00:33:38.968Z,6.03
2023-04-28T00:36:06.031Z,6.30
2023-04-28T00:38:33.773Z,5.43
2023-04-28T00:41:00.747Z,6.18
2023-04-28T00:43:27.369Z,5.65
2023-04-28T00:45:54.362Z,6.18
2023-04-28T00:48:22.449Z,5.47
2023-04-28T00:50:48.962Z,6.68
2023-04-28T00:53:15.935Z,5.95
2023-04-28T00:55:42.515Z,6.47
2023-04-28T00:58:09.634Z,5.38
2023-04-28T01:00:36.210Z,6.53
2023-04-28T01:03:03.729Z,6.22
2023-04-28T01:05:34.828Z,6.40
2023-04-28T01:08:01.575Z,5.97
2023-04-28T01:10:28.257Z,6.43
2023-04-28T01:12:58.829Z,6.70
2023-04-28T01:15:28.146Z,6.57
2023-04-28T01:17:55.441Z,6.90
2023-04-28T01:20:22.078Z,7.05
2023-04-28T01:22:48.866Z,6.50
2023-04-28T01:25:15.650Z,6.25
2023-04-28T01:27:42.239Z,6.13
2023-04-28T01:30:10.342Z,6.68
2023-04-28T01:32:37.157Z,6.45
2023-04-28T01:35:04.037Z,6.13
2023-04-28T01:37:30.626Z,7.00
2023-04-28T01:39:57.306Z,6.25
2023-04-28T01:42:24.992Z,6.70
2023-04-28T01:44:52.637Z,6.25
2023-04-28T01:47:20.044Z,6.90
2023-04-28T01:49:48.261Z,6.88
2023-04-28T01:52:14.975Z,7.05
2023-04-28T01:54:41.577Z,7.97
2023-04-28T01:57:08.144Z,6.45
2023-04-28T01:59:35.767Z,7.38
2023-04-28T02:02:02.503Z,7.30
2023-04-28T02:04:29.335Z,8.13
2023-04-28T02:06:56.002Z,7.78
2023-04-28T02:09:22.670Z,7.38
2023-04-28T02:11:50.674Z,8.25
2023-04-28T02:14:17.607Z,6.82
2023-04-28T02:16:44.405Z,7.15
2023-04-28T02:19:11.756Z,6.55
2023-04-28T02:21:38.348Z,7.30
2023-04-28T02:24:08.109Z,7.20
2023-04-28T02:26:35.348Z,7.85
2023-04-28T02:29:04.205Z,7.07
2023-04-28T02:31:32.974Z,7.53
2023-04-28T02:33:59.890Z,8.02
2023-04-28T02:36:27.773Z,7.82
2023-04-28T02:38:55.433Z,7.18
2023-04-28T02:41:22.990Z,7.72
2023-04-28T02:43:49.847Z,7.97
2023-04-28T02:46:16.467Z,8.20
2023-04-28T02:48:43.101Z,7.78
2023-04-28T02:51:12.151Z,8.10
2023-04-28T02:53:38.815Z,8.48
2023-04-28T02:56:05.641Z,8.07
2023-04-28T02:58:33.350Z,7.75
2023-04-28T03:01:00.507Z,9.00
2023-04-28T03:03:27.243Z,9.27
2023-04-28T03:05:56.514Z,8.68
2023-04-28T03:08:23.717Z,9.38
2023-04-28T03:10:50.412Z,9.65
2023-04-28T03:13:17.032Z,8.23
2023-04-28T03:15:43.701Z,9.23
2023-04-28T03:18:10.438Z,8.57
2023-04-28T03:20:37.323Z,8.55
2023-04-28T03:23:04.511Z,9.20
2023-04-28T03:25:31.282Z,9.13
2023-04-28T03:27:57.880Z,7.78
2023-04-28T03:30:25.456Z,8.65
2023-04-28T03:32:52.262Z,9.48
2023-04-28T03:35:19.094Z,9.32
2023-04-28T03:37:45.797Z,9.70
2023-04-28T03:40:13.222Z,10.60
2023-04-28T03:43:17.889Z,10.15
2023-04-28T03:46:07.578Z,10.30
2023-04-28T03:48:34.543Z,10.32
2023-04-28T03:51:02.479Z,10.13
2023-04-28T03:53:29.397Z,10.27
2023-04-28T03:55:56.298Z,11.02
2023-04-28T03:58:23.026Z,9.93
2023-04-28T04:00:50.981Z,10.65
2023-04-28T04:03:17.942Z,10.95
2023-04-28T04:05:44.876Z,10.70
2023-04-28T04:08:11.815Z,10.70
2023-04-28T04:10:39.415Z,11.00
2023-04-28T04:13:06.076Z,11.35
2023-04-28T04:15:32.857Z,11.52
2023-04-28T04:17:59.760Z,11.10
2023-04-28T04:20:31.575Z,11.27
2023-04-28T04:22:58.114Z,12.10
2023-04-28T04:25:24.836Z,11.57
2023-04-28T04:27:52.677Z,11.25
2023-04-28T04:30:19.343Z,12.85
2023-04-28T04:32:45.982Z,12.02
2023-04-28T04:35:12.736Z,12.63
2023-04-28T04:37:39.685Z,13.00
2023-04-28T04:40:07.120Z,14.00
2023-04-28T04:42:39.659Z,13.05
2023-04-28T04:45:08.795Z,12.73
2023-04-28T04:47:36.153Z,13.45
2023-04-28T04:50:02.910Z,14.95
2023-04-28T04:52:29.649Z,15.18
2023-04-28T04:54:56.576Z,14.65
2023-04-28T04:57:24.451Z,13.93
2023-04-28T05:00:06.720Z,14.50
2023-04-28T05:02:34.574Z,15.20
2023-04-28T05:05:16.713Z,15.55
2023-04-28T05:07:49.748Z,14.35
2023-04-28T05:10:16.876Z,15.75
2023-04-28T05:12:46.221Z,14.65
2023-04-28T05:15:17.787Z,16.33
2023-04-28T05:17:56.699Z,14.82
2023-04-28T05:20:24.013Z,15.43
2023-04-28T05:22:50.914Z,15.10
2023-04-28T05:25:17.876Z,14.85
2023-04-28T05:27:44.637Z,16.05
2023-04-28T05:30:11.451Z,15.90
2023-04-28T05:32:38.835Z,14.63
2023-04-28T05:35:06.786Z,15.02
2023-04-28T05:37:33.607Z,15.02
2023-04-28T05:40:00.447Z,15.68
2023-04-28T05:42:27.169Z,16.50
2023-04-28T05:44:53.909Z,15.90
2023-04-28T05:47:21.385Z,16.35
2023-04-28T05:49:48.003Z,15.30
2023-04-28T05:52:14.849Z,15.52
2023-04-28T05:54:41.660Z,16.65
2023-04-28T05:57:09.597Z,16.98
2023-04-28T05:59:36.852Z,15.45
2023-04-28T06:02:03.527Z,15.35
2023-04-28T06:04:32.532Z,14.95
2023-04-28T06:06:59.600Z,14.00
2023-04-28T06:09:29.827Z,15.00
2023-04-28T06:11:56.455Z,15.60
2023-04-28T06:14:23.313Z,14.88
2023-04-28T06:16:51.118Z,15.20
2023-04-28T06:19:20.623Z,15.60
2023-04-28T06:21:50.167Z,14.63
2023-04-28T06:24:18.105Z,14.48
2023-04-28T06:26:46.587Z,14.25
2023-04-28T06:29:13.274Z,14.95
2023-04-28T06:31:40.613Z,15.80
2023-04-28T06:34:07.536Z,13.68
2023-04-28T06:36:35.832Z,14.23
2023-04-28T06:39:05.177Z,13.15
2023-04-28T06:41:33.754Z,13.32
2023-04-28T06:44:02.411Z,12.65
2023-04-28T06:46:30.198Z,13.88
2023-04-28T06:48:57.365Z,13.90
2023-04-28T06:51:24.428Z,13.07
2023-04-28T06:53:53.366Z,12.18
2023-04-28T06:56:20.334Z,13.02
2023-04-28T06:58:48.240Z,12.07
2023-04-28T07:01:14.815Z,11.48
2023-04-28T07:03:42.904Z,11.90
2023-04-28T07:06:09.771Z,11.55
2023-04-28T07:08:36.918Z,11.95
2023-04-28T07:11:04.711Z,11.60
2023-04-28T07:13:32.663Z,11.52
2023-04-28T07:15:59.454Z,11.48
2023-04-28T07:18:26.275Z,11.80
2023-04-28T07:20:53.208Z,11.27
2023-04-28T07:23:19.805Z,11.05
2023-04-28T07:25:46.445Z,11.00
2023-04-28T07:28:14.117Z,11.10
2023-04-28T07:30:40.677Z,10.25
2023-04-28T07:33:07.398Z,10.82
2023-04-28T07:35:34.144Z,10.30
2023-04-28T07:38:01.987Z,9.93
2023-04-28T07:40:28.909Z,10.68
2023-04-28T07:42:55.506Z,9.93
2023-04-28T07:45:22.115Z,10.15
2023-04-28T07:47:48.718Z,10.50
2023-04-28T07:50:16.193Z,10.13
2023-04-28T07:52:43.169Z,9.95
2023-04-28T07:55:09.802Z,9.55
2023-04-28T07:57:36.905Z,9.88
2023-04-28T08:00:04.035Z,10.05
2023-04-28T08:02:38.517Z,9.20
2023-04-28T08:05:07.188Z,9.27
2023-04-28T08:07:33.971Z,9.35
2023-04-28T08:10:01.206Z,8.98
2023-04-28T08:12:28.242Z,9.32
2023-04-28T08:14:55.158Z,9.23
2023-04-28T08:17:21.828Z,9.23
2023-04-28T08:19:48.799Z,9.35
2023-04-28T08:22:15.806Z,8.88
2023-04-28T08:24:42.423Z,8.45
2023-04-28T08:27:08.999Z,8.98
2023-04-28T08:29:35.669Z,8.90
2023-04-28T08:32:02.369Z,8.70
2023-04-28T08:34:29.348Z,8.32
2023-04-28T08:36:55.961Z,10.25
2023-04-28T08:39:23.716Z,10.02
2023-04-28T08:41:50.679Z,10.30
2023-04-28T08:44:17.912Z,10.48
2023-04-28T08:46:47.124Z,11.20
2023-04-28T08:49:18.883Z,11.80
2023-04-28T08:51:50.139Z,11.30
2023-04-28T08:54:26.102Z,12.00
2023-04-28T08:56:54.308Z,13.55
2023-04-28T08:59:21.437Z,13.63
2023-04-28T09:01:52.341Z,12.90
2023-04-28T09:04:20.320Z,13.85
2023-04-28T09:06:47.598Z,12.45
2023-04-28T09:09:25.367Z,12.25
2023-04-28T09:11:56.808Z,13.65
2023-04-28T09:14:23.919Z,13.55
2023-04-28T09:16:51.764Z,13.40
2023-04-28T09:19:18.776Z,13.63
2023-04-28T09:21:54.537Z,12.55
2023-04-28T09:24:32.457Z,13.48
2023-04-28T09:27:00.737Z,13.70
2023-04-28T09:29:27.247Z,12.60
2023-04-28T09:31:54.338Z,13.48
2023-04-28T09:34:22.096Z,13.30
2023-04-28T09:36:48.797Z,13.82
2023-04-28T09:39:15.452Z,13.07
2023-04-28T09:41:45.429Z,13.98
2023-04-28T09:44:19.849Z,13.25
2023-04-28T09:46:47.614Z,13.02
2023-04-28T09:49:15.419Z,12.55
2023-04-28T09:51:42.681Z,13.02
2023-04-28T09:54:09.431Z,12.82
2023-04-28T09:56:42.456Z,11.23
2023-04-28T09:59:09.743Z,11.13
2023-04-28T10:01:41.546Z,12.48
2023-04-28T10:04:09.092Z,11.10
2023-04-28T10:06:39.249Z,10.20
2023-04-28T10:09:07.079Z,10.63
2023-04-28T10:11:34.621Z,9.65
2023-04-28T10:14:01.662Z,10.50
2023-04-28T10:16:31.280Z,9.75
2023-04-28T10:18:58.627Z,10.68
2023-04-28T10:21:27.139Z,9.90
2023-04-28T10:24:15.050Z,9.45
2023-04-28T10:26:53.925Z,8.82
2023-04-28T10:29:25.621Z,10.55
2023-04-28T10:32:17.951Z,8.90
2023-04-28T10:34:45.218Z,9.18
2023-04-28T10:37:11.773Z,9.43
2023-04-28T10:39:38.498Z,10.27
2023-04-28T10:42:05.055Z,10.27
2023-04-28T10:44:31.653Z,9.73
2023-04-28T10:47:04.883Z,10.82
2023-04-28T10:49:57.561Z,10.18
2023-04-28T10:52:33.555Z,10.43
2023-04-28T10:55:30.660Z,11.73
2023-04-28T10:58:26.360Z,11.60
2023-04-28T11:00:53.088Z,12.20
2023-04-28T11:03:47.854Z,12.60
2023-04-28T11:06:26.698Z,12.98
2023-04-28T11:08:55.739Z,13.25
2023-04-28T11:11:25.721Z,12.50
2023-04-28T11:14:13.363Z,12.75
2023-04-28T11:16:56.380Z,12.50
2023-04-28T11:19:24.694Z,12.38
2023-04-28T11:21:53.046Z,15.18
2023-04-28T11:24:20.592Z,13.93
2023-04-28T11:26:47.505Z,15.55
2023-04-28T11:29:17.476Z,14.10
2023-04-28T11:31:51.359Z,15.73
2023-04-28T11:34:22.143Z,14.43
2023-04-28T11:36:48.811Z,13.65
2023-04-28T11:39:15.429Z,13.80
2023-04-28T11:41:44.151Z,16.55
2023-04-28T11:44:19.622Z,16.73
2023-04-28T11:46:51.676Z,17.00
2023-04-28T11:49:20.311Z,17.00
2023-04-28T11:51:49.839Z,17.35
2023-04-28T11:54:27.661Z,16.00
2023-04-28T11:56:56.594Z,19.27
2023-04-28T11:59:25.825Z,18.42
2023-04-28T12:01:54.638Z,19.08
2023-04-28T12:04:40.923Z,19.30
2023-04-28T12:07:12.542Z,20.88
2023-04-28T12:09:40.709Z,20.07
2023-04-28T12:12:12.406Z,19.00
2023-04-28T12:15:02.050Z,20.88
2023-04-28T12:17:34.475Z,22.33
2023-04-28T12:20:04.445Z,21.25
2023-04-28T12:22:31.401Z,20.70
2023-04-28T12:25:09.304Z,21.52
2023-04-28T12:27:39.457Z,19.25
2023-04-28T12:30:25.362Z,19.73
2023-04-28T12:32:52.261Z,19.48
2023-04-28T12:35:25.708Z,20.75
2023-04-28T12:37:53.677Z,18.52
2023-04-28T12:40:20.340Z,16.73
2023-04-28T12:42:47.029Z,18.52
2023-04-28T12:45:14.031Z,16.85
2023-04-28T12:47:40.650Z,18.35
2023-04-28T12:50:08.008Z,19.30
2023-04-28T12:52:35.791Z,18.38
2023-04-28T12:55:03.029Z,17.10
2023-04-28T12:57:29.612Z,16.67
2023-04-28T12:59:57.135Z,18.58
2023-04-28T13:02:24.114Z,17.23
2023-04-28T13:04:52.183Z,16.20
2023-04-28T13:07:19.184Z,14.10
2023-04-28T13:09:47.331Z,13.70
2023-04-28T13:12:14.662Z,12.30
2023-04-28T13:14:41.836Z,10.48
2023-04-28T13:17:09.005Z,11.65
2023-04-28T13:19:35.725Z,13.43
2023-04-28T13:22:05.282Z,8.48
2023-04-28T13:24:33.517Z,6.57
2023-04-28T13:27:00.447Z,7.03
2023-04-28T13:29:26.968Z,5.93
2023-04-28T13:31:53.716Z,6.25
2023-04-28T13:34:20.347Z,5.82
2023-04-28T13:36:48.172Z,6.80
2023-04-28T13:39:15.050Z,6.05
2023-04-28T13:41:42.617Z,5.90
2023-04-28T13:44:09.531Z,5.68
2023-04-28T13:46:36.154Z,5.93
2023-04-28T13:49:02.777Z,6.05
2023-04-28T13:51:29.436Z,5.43
2023-04-28T13:53:56.482Z,5.35
2023-04-28T13:56:23.042Z,6.07
2023-04-28T13:58:49.766Z,5.40
2023-04-28T14:01:16.432Z,5.38
2023-04-28T14:03:45.508Z,6.88
2023-04-28T14:06:12.846Z,5.00
2023-04-28T14:08:39.637Z,4.72
2023-04-28T14:11:06.527Z,5.68
2023-04-28T14:13:33.389Z,5.45
2023-04-28T14:16:00.155Z,5.10
2023-04-28T14:18:29.931Z,5.95
2023-04-28T14:20:56.497Z,5.32
2023-04-28T14:23:23.137Z,6.00
2023-04-28T14:25:50.248Z,5.95
2023-04-28T14:28:17.216Z,4.90
2023-04-28T14:30:44.103Z,4.63
2023-04-28T14:33:10.873Z,4.97
2023-04-28T14:35:37.529Z,4.97
2023-04-28T14:38:04.317Z,4.70
2023-04-28T14:40:31.349Z,5.25
2023-04-28T14:42:58.173Z,4.97
2023-04-28T14:45:25.002Z,6.10
2023-04-28T14:47:53.441Z,5.60
2023-04-28T14:50:21.015Z,4.80
2023-04-28T14:52:47.595Z,5.30
2023-04-28T14:55:14.463Z,5.65
2023-04-28T14:57:41.974Z,5.88
2023-04-28T15:00:09.170Z,5.10
2023-04-28T15:02:35.930Z,5.82
2023-04-28T15:05:03.322Z,5.70
2023-04-28T15:07:31.729Z,6.30
2023-04-28T15:09:59.448Z,6.63
2023-04-28T15:12:26.938Z,6.13
2023-04-28T15:14:53.873Z,6.93
2023-04-28T15:17:23.561Z,6.72
2023-04-28T15:19:50.146Z,8.07
2023-04-28T15:22:16.985Z,6.43
2023-04-28T15:24:43.692Z,6.50
2023-04-28T15:27:10.801Z,5.72
2023-04-28T15:29:37.457Z,5.88
2023-04-28T15:32:04.955Z,4.20
2023-04-28T15:34:31.565Z,3.67
2023-04-28T15:36:58.189Z,3.70
2023-04-28T15:39:25.585Z,3.20
2023-04-28T15:41:53.158Z,3.80
2023-04-28T15:44:19.902Z,3.92
2023-04-28T15:46:46.714Z,4.63
2023-04-28T15:49:13.756Z,5.18
2023-04-28T15:51:40.348Z,5.32
2023-04-28T15:54:07.001Z,6.55
2023-04-28T15:56:33.837Z,7.15
2023-04-28T15:59:00.443Z,8.23
2023-04-28T16:01:28.417Z,9.60
2023-04-28T16:03:55.241Z,9.27
2023-04-28T16:06:22.047Z,8.85
2023-04-28T16:08:48.704Z,8.65
2023-04-28T16:11:19.297Z,9.40
2023-04-28T16:13:45.906Z,9.50
2023-04-28T16:16:12.596Z,9.55
2023-04-28T16:18:39.483Z,9.77
2023-04-28T16:21:06.500Z,10.10
2023-04-28T16:23:33.397Z,9.98
2023-04-28T16:26:00.193Z,10.25
2023-04-28T16:28:27.108Z,10.27
2023-04-28T16:30:54.866Z,10.70
2023-04-28T16:33:21.513Z,10.50
2023-04-28T16:35:56.063Z,10.75
2023-04-28T16:38:22.798Z,11.32
2023-04-28T16:40:50.690Z,10.63
2023-04-28T16:43:18.000Z,11.63
2023-04-28T16:45:44.799Z,10.43
2023-04-28T16:48:11.650Z,10.32
2023-04-28T16:50:40.769Z,10.82
2023-04-28T16:53:08.102Z,11.18
2023-04-28T16:55:36.545Z,10.85
2023-04-28T16:58:03.818Z,11.10
2023-04-28T17:00:30.951Z,11.25
2023-04-28T17:02:57.697Z,12.05
2023-04-28T17:05:24.444Z,12.07
2023-04-28T17:07:51.052Z,12.18
2023-04-28T17:10:17.854Z,12.07
2023-04-28T17:12:45.573Z,12.93
2023-04-28T17:15:18.398Z,10.45
2023-04-28T17:17:48.998Z,12.50
2023-04-28T17:20:19.806Z,12.10
2023-04-28T17:22:47.502Z,11.90
2023-04-28T17:25:14.491Z,12.57
2023-04-28T17:27:41.094Z,9.32
2023-04-28T17:30:10.963Z,9.57
2023-04-28T17:32:38.140Z,9.60
2023-04-28T17:35:07.311Z,14.25
2023-04-28T17:37:34.612Z,14.32
2023-04-28T17:40:01.941Z,9.95
2023-04-28T17:42:31.455Z,9.15
2023-04-28T17:44:58.065Z,8.75
2023-04-28T17:47:24.747Z,10.38
2023-04-28T17:49:51.842Z,10.55
2023-04-28T17:52:18.587Z,10.15
2023-04-28T17:54:45.238Z,10.25
2023-04-28T17:57:12.925Z,9.88
2023-04-28T17:59:40.618Z,10.73
2023-04-28T18:02:11.259Z,11.27
2023-04-28T18:04:38.418Z,11.57
2023-04-28T18:07:06.391Z,10.70
2023-04-28T18:09:33.219Z,10.93
2023-04-28T18:12:02.293Z,11.00
2023-04-28T18:14:31.234Z,11.77
2023-04-28T18:16:58.428Z,11.73
2023-04-28T18:19:28.614Z,11.85
2023-04-28T18:21:56.717Z,12.27
2023-04-28T18:24:23.992Z,13.45
2023-04-28T18:26:50.653Z,12.02
2023-04-28T18:29:18.840Z,12.30
2023-04-28T18:31:46.275Z,11.45
2023-04-28T18:34:13.259Z,12.38
2023-04-28T18:36:39.949Z,11.73
2023-04-28T18:41:53.242Z,11.27
2023-04-28T18:44:21.008Z,14.23
2023-04-28T18:46:47.719Z,11.90
2023-04-28T18:49:14.618Z,10.73
2023-04-28T18:51:41.184Z,10.73
2023-04-28T18:54:07.798Z,10.00
2023-04-28T18:56:35.045Z,10.45
2023-04-28T18:59:04.258Z,9.73
2023-04-28T19:01:30.963Z,9.32
2023-04-28T19:03:58.354Z,8.88
2023-04-28T19:06:25.617Z,9.55
2023-04-28T19:08:52.297Z,9.02
2023-04-28T19:11:18.914Z,9.07
2023-04-28T19:13:45.598Z,9.32
2023-04-28T19:16:12.590Z,8.73
2023-04-28T19:18:39.757Z,8.05
2023-04-28T19:21:06.406Z,7.35
2023-04-28T19:23:33.713Z,7.88
2023-04-28T19:26:01.897Z,8.30
2023-04-28T19:28:28.927Z,8.30
2023-04-28T19:30:59.216Z,6.85
2023-04-28T19:33:28.261Z,7.57
2023-04-28T19:35:55.390Z,8.63
2023-04-28T19:38:23.395Z,8.20
2023-04-28T19:40:57.982Z,9.63
2023-04-28T19:43:24.594Z,8.93
2023-04-28T19:45:51.458Z,8.65
2023-04-28T19:48:18.781Z,9.23
2023-04-28T19:50:47.281Z,8.57
2023-04-28T19:53:14.697Z,8.40
2023-04-28T19:55:41.272Z,7.63
2023-04-28T19:58:09.714Z,8.00
2023-04-28T20:00:36.694Z,7.90
2023-04-28T20:03:03.978Z,9.85
2023-04-28T20:05:31.301Z,12.73
2023-04-28T20:07:57.964Z,14.00
2023-04-28T20:10:25.622Z,15.43
2023-04-28T20:12:53.823Z,16.52
2023-04-28T20:15:20.798Z,17.75
2023-04-28T20:17:48.463Z,19.95
2023-04-28T20:20:15.512Z,20.83
2023-04-28T20:22:42.150Z,20.70
2023-04-28T20:25:10.442Z,20.75
2023-04-28T20:27:37.430Z,20.73
2023-04-28T20:30:05.715Z,21.40
2023-04-28T20:32:32.499Z,21.17
2023-04-28T20:35:02.748Z,22.77
2023-04-28T20:37:30.095Z,23.02
2023-04-28T20:39:56.920Z,23.13
2023-04-28T20:42:23.528Z,23.63
2023-04-28T20:44:50.893Z,20.60
2023-04-28T20:47:17.902Z,23.33
2023-04-28T20:49:44.507Z,24.48
2023-04-28T20:52:11.226Z,22.83
2023-04-28T20:54:37.943Z,24.17
2023-04-28T20:57:04.941Z,24.70
2023-04-28T20:59:32.855Z,26.45
2023-04-28T21:02:00.202Z,25.65
2023-04-28T21:04:28.136Z,22.98
2023-04-28T21:06:55.468Z,21.92
2023-04-28T21:09:24.794Z,23.48
2023-04-28T21:11:51.377Z,24.95
2023-04-28T21:14:18.007Z,25.00
2023-04-28T21:16:44.615Z,26.25
2023-04-28T21:19:11.633Z,26.70
2023-04-28T21:21:38.714Z,27.30
2023-04-28T21:24:06.127Z,26.52
2023-04-28T21:26:32.977Z,26.85
2023-04-28T21:28:59.901Z,29.25
2023-04-28T21:31:27.038Z,28.08
2023-04-28T21:33:53.669Z,28.98
2023-04-28T21:36:20.476Z,26.40
2023-04-28T21:38:47.225Z,28.83
2023-04-28T21:41:14.142Z,27.95
2023-04-28T21:43:40.751Z,26.58
2023-04-28T21:46:07.983Z,28.90
2023-04-28T21:48:35.218Z,30.55
2023-04-28T21:51:01.813Z,33.42
2023-04-28T21:53:28.872Z,34.45
2023-04-28T21:55:55.467Z,33.03
2023-04-28T21:58:22.152Z,33.50
2023-04-28T22:00:48.991Z,35.25
2023-04-28T22:03:16.362Z,35.13
2023-04-28T22:05:44.880Z,34.42
2023-04-28T22:08:12.000Z,36.42
2023-04-28T22:10:38.777Z,36.20
2023-04-28T22:13:06.383Z,35.85
2023-04-28T22:15:33.125Z,38.40
2023-04-28T22:17:59.825Z,38.85
2023-04-28T22:20:26.881Z,40.55
2023-04-28T22:22:53.988Z,43.28
2023-04-28T22:25:20.921Z,46.65
2023-04-28T22:27:47.576Z,48.50
2023-04-28T22:30:14.663Z,48.70
2023-04-28T22:32:46.749Z,47.58
2023-04-28T22:35:13.906Z,49.28
2023-04-28T22:37:41.514Z,47.92
2023-04-28T22:40:09.111Z,48.28
2023-04-28T22:42:37.203Z,49.00
2023-04-28T22:45:04.426Z,51.50
2023-04-28T22:47:31.084Z,50.38
2023-04-28T22:49:57.745Z,48.80
2023-04-28T22:52:24.497Z,47.38
2023-04-28T22:54:51.319Z,49.28
2023-04-28T22:57:18.044Z,44.80
2023-04-28T22:59:45.113Z,46.78
2023-04-28T23:02:13.543Z,42.17
2023-04-28T23:04:41.062Z,45.75
2023-04-28T23:07:08.762Z,44.30
2023-04-28T23:09:37.197Z,42.78
2023-04-28T23:12:04.931Z,44.50
2023-04-28T23:14:33.807Z,42.80
2023-04-28T23:17:00.429Z,46.72
2023-04-28T23:19:27.027Z,41.58
2023-04-28T23:21:54.461Z,46.85
2023-04-28T23:24:21.130Z,47.60
2023-04-28T23:26:47.659Z,43.85
2023-04-28T23:29:14.438Z,48.90
2023-04-28T23:31:41.286Z,46.50
2023-04-28T23:34:08.608Z,50.03
2023-04-28T23:36:36.426Z,47.25
2023-04-28T23:39:03.178Z,43.50
2023-04-28T23:41:29.733Z,44.35
2023-04-28T23:43:56.804Z,42.33
2023-04-28T23:46:23.864Z,39.70
2023-04-28T23:48:50.833Z,39.78
2023-04-28T23:51:17.508Z,41.50
2023-04-28T23:53:44.241Z,41.80
2023-04-28T23:56:11.864Z,45.45
2023-04-28T23:58:39.878Z,44.60
